createdAt,value
2023-04-09T00:01:22.921Z,2.64
2023-04-09T00:04:26.166Z,2.57
2023-04-09T00:07:29.332Z,2.59
2023-04-09T00:10:32.502Z,2.56
2023-04-09T00:13:39.679Z,2.60
2023-04-09T00:16:43.293Z,2.61
2023-04-09T00:19:46.515Z,2.66
2023-04-09T00:22:50.481Z,2.67
2023-04-09T00:25:53.378Z,2.68
2023-04-09T00:28:56.587Z,2.69
2023-04-09T00:31:59.507Z,2.72
2023-04-09T00:35:02.692Z,2.74
2023-04-09T00:38:06.315Z,2.78
2023-04-09T00:41:09.573Z,2.79
2023-04-09T00:44:13.098Z,2.82
2023-04-09T00:47:16.401Z,2.80
2023-04-09T00:50:19.624Z,2.78
2023-04-09T00:53:23.028Z,2.77
2023-04-09T00:56:27.351Z,2.77
2023-04-09T00:59:30.633Z,2.74
2023-04-09T01:02:34.144Z,2.70
2023-04-09T01:05:44.211Z,2.64
2023-04-09T01:09:02.280Z,2.58
2023-04-09T01:12:32.795Z,2.54
2023-04-09T01:15:40.086Z,2.45
2023-04-09T01:18:51.636Z,2.38
2023-04-09T01:21:56.648Z,2.36
2023-04-09T01:25:18.586Z,2.41
2023-04-09T01:28:21.913Z,2.41
2023-04-09T01:31:29.040Z,2.49
2023-04-09T01:34:32.805Z,2.53
2023-04-09T01:37:36.367Z,2.59
2023-04-09T01:40:39.428Z,2.61
2023-04-09T01:43:43.486Z,2.64
2023-04-09T01:46:50.473Z,2.68
2023-04-09T01:49:54.396Z,2.70
2023-04-09T01:52:57.349Z,2.74
2023-04-09T01:56:01.533Z,2.77
2023-04-09T01:59:04.777Z,2.78
2023-04-09T02:02:23.483Z,2.83
2023-04-09T02:05:29.597Z,2.81
2023-04-09T02:08:33.771Z,2.84
2023-04-09T02:11:42.150Z,2.87
2023-04-09T02:14:51.636Z,2.88
2023-04-09T02:17:55.903Z,2.90
2023-04-09T02:20:59.802Z,2.92
2023-04-09T02:24:03.115Z,2.92
2023-04-09T02:27:06.399Z,2.88
2023-04-09T02:30:09.915Z,2.92
2023-04-09T02:33:12.912Z,2.96
2023-04-09T02:36:16.732Z,2.97
2023-04-09T02:39:19.654Z,2.97
2023-04-09T02:42:23.016Z,2.92
2023-04-09T02:45:26.100Z,2.91
2023-04-09T02:48:30.165Z,2.90
2023-04-09T02:51:36.062Z,2.91
2023-04-09T02:54:40.128Z,2.89
2023-04-09T02:57:43.205Z,2.88
2023-04-09T03:00:46.596Z,2.87
2023-04-09T03:03:50.284Z,2.87
2023-04-09T03:06:54.244Z,2.88
2023-04-09T03:09:57.288Z,2.91
2023-04-09T03:13:00.573Z,2.92
2023-04-09T03:16:03.651Z,2.93
2023-04-09T03:19:06.890Z,2.92
2023-04-09T03:22:12.104Z,2.93
2023-04-09T03:25:15.569Z,2.92
2023-04-09T03:28:18.618Z,2.92
2023-04-09T03:31:22.178Z,2.92
2023-04-09T03:34:25.088Z,2.94
2023-04-09T03:37:29.305Z,2.97
2023-04-09T03:40:33.700Z,2.99
2023-04-09T03:43:36.951Z,2.99
2023-04-09T03:46:40.466Z,3.02
2023-04-09T03:49:44.464Z,2.97
2023-04-09T03:52:48.221Z,2.94
2023-04-09T03:55:51.234Z,2.98
2023-04-09T03:58:55.031Z,2.88
2023-04-09T04:01:59.468Z,2.88
2023-04-09T04:05:03.925Z,2.91
2023-04-09T04:08:07.452Z,2.96
2023-04-09T04:11:10.773Z,2.93
2023-04-09T04:14:14.407Z,2.97
2023-04-09T04:17:18.497Z,3.01
2023-04-09T04:20:22.068Z,3.00
2023-04-09T04:23:26.415Z,3.02
2023-04-09T04:26:29.540Z,2.96
2023-04-09T04:29:33.553Z,2.87
2023-04-09T04:32:36.812Z,2.83
2023-04-09T04:35:41.233Z,2.97
2023-04-09T04:38:44.600Z,3.08
2023-04-09T04:41:49.532Z,3.14
2023-04-09T04:44:53.478Z,3.22
2023-04-09T04:48:01.121Z,3.23
2023-04-09T04:51:04.128Z,3.25
2023-04-09T04:54:08.074Z,3.17
2023-04-09T04:57:11.167Z,3.11
2023-04-09T05:00:15.019Z,3.21
2023-04-09T05:03:18.172Z,3.32
2023-04-09T05:06:22.026Z,3.49
2023-04-09T05:09:25.427Z,3.58
2023-04-09T05:12:32.235Z,3.59
2023-04-09T05:15:39.509Z,3.63
2023-04-09T05:18:43.071Z,3.73
2023-04-09T05:21:47.213Z,3.80
2023-04-09T05:24:54.492Z,3.86
2023-04-09T05:27:58.114Z,3.85
2023-04-09T05:31:02.035Z,3.76
2023-04-09T05:34:07.112Z,3.64
2023-04-09T05:37:10.916Z,3.60
2023-04-09T05:40:15.905Z,3.62
2023-04-09T05:43:19.468Z,3.61
2023-04-09T05:46:27.063Z,3.58
2023-04-09T05:49:30.974Z,3.71
2023-04-09T05:52:34.661Z,3.87
2023-04-09T05:55:38.055Z,3.89
2023-04-09T05:58:41.166Z,3.99
2023-04-09T06:01:44.564Z,4.15
2023-04-09T06:04:47.879Z,3.94
2023-04-09T06:07:51.131Z,4.14
2023-04-09T06:10:54.260Z,4.02
2023-04-09T06:13:57.345Z,4.31
2023-04-09T06:17:00.693Z,4.18
2023-04-09T06:20:03.892Z,4.39
2023-04-09T06:23:07.164Z,4.29
2023-04-09T06:26:10.111Z,4.43
2023-04-09T06:29:13.340Z,4.29
2023-04-09T06:32:16.891Z,4.25
2023-04-09T06:35:20.051Z,4.43
2023-04-09T06:38:22.906Z,4.53
2023-04-09T06:41:26.779Z,4.14
2023-04-09T06:44:30.360Z,4.44
2023-04-09T06:47:33.351Z,4.89
2023-04-09T06:50:35.985Z,4.95
2023-04-09T06:53:39.483Z,4.73
2023-04-09T06:56:42.211Z,4.95
2023-04-09T06:59:45.643Z,4.86
2023-04-09T07:02:49.136Z,5.25
2023-04-09T07:05:52.452Z,4.56
2023-04-09T07:08:55.902Z,4.41
2023-04-09T07:11:59.260Z,5.10
2023-04-09T07:15:03.874Z,5.45
2023-04-09T07:18:07.348Z,5.93
2023-04-09T07:21:10.476Z,5.41
2023-04-09T07:24:13.595Z,5.81
2023-04-09T07:27:16.520Z,5.83
2023-04-09T07:30:19.926Z,5.86
2023-04-09T07:33:22.804Z,6.04
2023-04-09T07:36:26.739Z,5.97
2023-04-09T07:39:29.636Z,5.96
2023-04-09T07:42:33.293Z,5.76
2023-04-09T07:45:36.200Z,5.98
2023-04-09T07:48:40.069Z,6.29
2023-04-09T07:51:43.666Z,6.45
2023-04-09T07:54:47.060Z,6.34
2023-04-09T07:57:50.332Z,5.91
2023-04-09T08:00:53.530Z,6.30
2023-04-09T08:03:57.434Z,6.28
2023-04-09T08:07:00.605Z,6.62
2023-04-09T08:10:04.400Z,6.65
2023-04-09T08:13:08.048Z,7.20
2023-04-09T08:16:12.347Z,7.48
2023-04-09T08:19:17.211Z,7.65
2023-04-09T08:22:20.568Z,7.99
2023-04-09T08:25:23.669Z,8.19
2023-04-09T08:28:26.921Z,8.44
2023-04-09T08:31:29.946Z,8.23
2023-04-09T08:34:33.575Z,8.61
2023-04-09T08:37:36.363Z,8.83
2023-04-09T08:40:40.506Z,9.02
2023-04-09T08:43:56.831Z,9.15
2023-04-09T08:47:01.850Z,8.95
2023-04-09T08:50:05.051Z,8.92
2023-04-09T08:53:08.857Z,9.32
2023-04-09T08:56:14.030Z,9.55
2023-04-09T08:59:21.347Z,9.10
2023-04-09T09:02:24.464Z,9.57
2023-04-09T09:05:41.201Z,9.96
2023-04-09T09:08:44.228Z,9.76
2023-04-09T09:11:50.328Z,9.68
2023-04-09T09:14:53.293Z,9.57
2023-04-09T09:17:58.798Z,9.68
2023-04-09T09:21:12.096Z,9.75
2023-04-09T09:24:18.468Z,9.76
2023-04-09T09:27:37.318Z,8.46
2023-04-09T09:30:41.853Z,9.33
2023-04-09T09:33:45.030Z,9.41
2023-04-09T09:36:48.750Z,9.74
2023-04-09T09:39:51.428Z,9.96
2023-04-09T09:42:56.066Z,10.14
2023-04-09T09:45:59.069Z,10.57
2023-04-09T09:49:02.262Z,10.66
2023-04-09T09:52:09.818Z,11.17
2023-04-09T09:55:16.811Z,10.89
2023-04-09T09:58:41.481Z,10.88
2023-04-09T10:01:46.754Z,10.74
2023-04-09T10:04:52.971Z,10.76
2023-04-09T10:07:58.097Z,11.42
2023-04-09T10:11:01.946Z,11.55
2023-04-09T10:14:08.037Z,12.05
2023-04-09T10:17:11.912Z,10.28
2023-04-09T10:20:24.695Z,11.92
2023-04-09T10:23:32.945Z,10.61
2023-04-09T10:26:37.549Z,11.74
2023-04-09T10:29:48.584Z,12.16
2023-04-09T10:32:53.374Z,11.75
2023-04-09T10:36:02.320Z,11.58
2023-04-09T10:39:15.296Z,11.01
2023-04-09T10:42:43.345Z,11.01
2023-04-09T10:45:53.654Z,10.35
2023-04-09T10:49:18.312Z,10.61
2023-04-09T10:52:30.330Z,10.97
2023-04-09T10:55:41.670Z,11.05
2023-04-09T10:58:44.623Z,11.09
2023-04-09T11:01:54.806Z,10.86
2023-04-09T11:05:20.971Z,9.57
2023-04-09T11:08:24.180Z,10.30
2023-04-09T11:11:28.612Z,10.86
2023-04-09T11:14:33.994Z,10.74
2023-04-09T11:17:37.152Z,9.47
2023-04-09T11:20:41.397Z,10.50
2023-04-09T11:23:52.288Z,10.41
2023-04-09T11:26:56.985Z,8.81
2023-04-09T11:29:59.903Z,8.80
2023-04-09T11:33:04.175Z,8.78
2023-04-09T11:36:09.114Z,9.62
2023-04-09T11:39:12.438Z,9.88
2023-04-09T11:42:16.149Z,10.03
2023-04-09T11:45:21.890Z,9.81
2023-04-09T11:48:25.071Z,9.57
2023-04-09T11:51:28.789Z,9.98
2023-04-09T11:54:35.234Z,10.04
2023-04-09T11:57:43.963Z,9.92
2023-04-09T12:00:46.942Z,10.34
2023-04-09T12:03:56.682Z,10.64
2023-04-09T12:06:59.842Z,10.62
2023-04-09T12:10:10.582Z,11.19
2023-04-09T12:13:13.961Z,11.32
2023-04-09T12:16:21.175Z,10.98
2023-04-09T12:19:25.957Z,9.73
2023-04-09T12:22:29.010Z,11.30
2023-04-09T12:25:32.693Z,12.09
2023-04-09T12:28:35.965Z,11.81
2023-04-09T12:31:38.961Z,11.84
2023-04-09T12:34:42.131Z,12.19
2023-04-09T12:37:44.959Z,11.65
2023-04-09T12:40:48.126Z,11.74
2023-04-09T12:43:51.466Z,12.32
2023-04-09T12:46:55.445Z,12.25
2023-04-09T12:49:58.137Z,12.22
2023-04-09T12:53:03.714Z,12.98
2023-04-09T12:56:14.158Z,13.56
2023-04-09T12:59:19.365Z,13.02
2023-04-09T13:02:22.460Z,13.09
2023-04-09T13:05:26.079Z,13.32
2023-04-09T13:08:29.023Z,14.21
2023-04-09T13:11:33.066Z,15.83
2023-04-09T13:14:36.626Z,16.72
2023-04-09T13:17:39.857Z,16.34
2023-04-09T13:20:42.819Z,17.95
2023-04-09T13:23:45.961Z,16.66
2023-04-09T13:26:49.082Z,14.55
2023-04-09T13:29:52.365Z,18.04
2023-04-09T13:32:55.544Z,14.78
2023-04-09T13:35:58.726Z,16.36
2023-04-09T13:39:05.631Z,14.49
2023-04-09T13:42:13.557Z,11.78
2023-04-09T13:45:18.042Z,13.19
2023-04-09T13:48:21.921Z,12.58
2023-04-09T13:51:26.464Z,12.86
2023-04-09T13:54:29.512Z,11.95
2023-04-09T13:57:32.300Z,10.50
2023-04-09T14:00:36.677Z,11.73
2023-04-09T14:03:41.740Z,11.17
2023-04-09T14:06:44.768Z,11.20
2023-04-09T14:09:50.871Z,10.54
2023-04-09T14:12:54.387Z,11.11
2023-04-09T14:16:00.321Z,10.73
2023-04-09T14:19:03.482Z,9.83
2023-04-09T14:22:08.975Z,10.63
2023-04-09T14:25:12.135Z,10.84
2023-04-09T14:28:15.313Z,11.09
2023-04-09T14:31:21.556Z,11.20
2023-04-09T14:34:24.915Z,11.30
2023-04-09T14:37:27.991Z,11.06
2023-04-09T14:40:32.160Z,10.96
2023-04-09T14:43:35.055Z,10.90
2023-04-09T14:46:38.435Z,10.53
2023-04-09T14:49:41.407Z,10.33
2023-04-09T14:52:48.401Z,10.19
2023-04-09T14:55:51.440Z,10.02
2023-04-09T14:58:54.820Z,9.77
2023-04-09T15:01:58.300Z,9.65
2023-04-09T15:05:03.856Z,9.74
2023-04-09T15:08:07.342Z,9.63
2023-04-09T15:11:18.135Z,9.73
2023-04-09T15:14:21.407Z,9.79
2023-04-09T15:17:26.298Z,9.77
2023-04-09T15:20:29.167Z,10.20
2023-04-09T15:23:35.600Z,10.42
2023-04-09T15:26:38.672Z,10.10
2023-04-09T15:29:41.920Z,10.11
2023-04-09T15:32:48.281Z,9.61
2023-04-09T15:35:51.561Z,9.33
2023-04-09T15:38:54.798Z,9.43
2023-04-09T15:41:58.445Z,9.57
2023-04-09T15:45:01.341Z,9.71
2023-04-09T15:48:05.315Z,9.30
2023-04-09T15:51:09.325Z,9.56
2023-04-09T15:54:12.548Z,9.58
2023-04-09T15:57:15.737Z,9.46
2023-04-09T16:00:18.996Z,9.54
2023-04-09T16:03:22.314Z,9.74
2023-04-09T16:06:25.622Z,9.73
2023-04-09T16:09:28.935Z,9.63
2023-04-09T16:12:32.196Z,9.25
2023-04-09T16:15:36.130Z,9.35
2023-04-09T16:18:39.083Z,9.26
2023-04-09T16:21:44.784Z,9.60
2023-04-09T16:24:47.634Z,9.71
2023-04-09T16:27:55.002Z,9.64
2023-04-09T16:30:58.741Z,9.69
2023-04-09T16:34:03.696Z,9.62
2023-04-09T16:37:07.938Z,9.65
2023-04-09T16:40:11.357Z,9.55
2023-04-09T16:43:14.225Z,9.53
2023-04-09T16:46:18.229Z,9.57
2023-04-09T16:49:21.146Z,9.42
2023-04-09T16:52:24.553Z,9.39
2023-04-09T16:55:27.405Z,9.33
2023-04-09T16:58:30.771Z,9.20
2023-04-09T17:01:35.378Z,9.19
2023-04-09T17:04:38.665Z,8.82
2023-04-09T17:07:43.318Z,9.02
2023-04-09T17:10:46.535Z,9.01
2023-04-09T17:13:49.472Z,8.99
2023-04-09T17:16:53.929Z,8.87
2023-04-09T17:19:58.533Z,8.88
2023-04-09T17:23:01.904Z,8.75
2023-04-09T17:26:05.016Z,8.80
2023-04-09T17:29:08.213Z,8.75
2023-04-09T17:32:11.183Z,8.63
2023-04-09T17:35:14.356Z,8.60
2023-04-09T17:38:21.425Z,8.58
2023-04-09T17:41:25.084Z,8.54
2023-04-09T17:44:28.204Z,8.45
2023-04-09T17:47:31.462Z,8.39
2023-04-09T17:50:38.593Z,8.31
2023-04-09T17:53:41.832Z,8.24
2023-04-09T17:56:46.158Z,8.17
2023-04-09T17:59:49.439Z,8.10
2023-04-09T18:02:54.138Z,8.05
2023-04-09T18:06:00.773Z,8.00
2023-04-09T18:09:04.300Z,8.00
2023-04-09T18:12:07.543Z,7.96
2023-04-09T18:15:11.116Z,7.95
2023-04-09T18:18:14.403Z,7.86
2023-04-09T18:21:18.250Z,7.83
2023-04-09T18:24:21.556Z,7.83
2023-04-09T18:27:24.519Z,7.87
2023-04-09T18:30:27.723Z,7.82
2023-04-09T18:33:31.119Z,7.77
2023-04-09T18:36:34.360Z,7.76
2023-04-09T18:39:37.802Z,7.72
2023-04-09T18:42:40.997Z,7.66
2023-04-09T18:45:45.440Z,7.69
2023-04-09T18:48:50.671Z,7.69
2023-04-09T18:51:53.607Z,7.65
2023-04-09T18:54:58.263Z,7.64
2023-04-09T18:58:02.262Z,7.59
2023-04-09T19:01:13.231Z,7.58
2023-04-09T19:04:16.484Z,7.56
2023-04-09T19:07:22.592Z,7.57
2023-04-09T19:10:27.342Z,7.58
2023-04-09T19:13:32.707Z,7.56
2023-04-09T19:16:37.179Z,7.59
2023-04-09T19:19:40.493Z,7.52
2023-04-09T19:22:48.461Z,7.45
2023-04-09T19:25:53.614Z,7.37
2023-04-09T19:28:56.922Z,7.26
2023-04-09T19:32:00.629Z,7.16
2023-04-09T19:35:03.898Z,7.07
2023-04-09T19:38:08.063Z,6.97
2023-04-09T19:41:11.112Z,6.88
2023-04-09T19:44:14.257Z,6.85
2023-04-09T19:47:17.168Z,6.78
2023-04-09T19:50:20.579Z,6.68
2023-04-09T19:53:23.957Z,6.61
2023-04-09T19:56:27.235Z,6.53
2023-04-09T19:59:31.501Z,6.38
2023-04-09T20:02:35.422Z,6.27
2023-04-09T20:05:40.389Z,6.21
2023-04-09T20:08:43.411Z,6.08
2023-04-09T20:11:47.825Z,6.02
2023-04-09T20:14:51.129Z,6.02
2023-04-09T20:17:54.370Z,5.99
2023-04-09T20:20:57.346Z,5.90
2023-04-09T20:24:00.766Z,5.91
2023-04-09T20:27:04.065Z,5.87
2023-04-09T20:30:08.372Z,5.89
2023-04-09T20:33:11.791Z,5.95
2023-04-09T20:36:19.521Z,5.99
2023-04-09T20:39:25.153Z,6.06
2023-04-09T20:42:28.473Z,6.05
2023-04-09T20:45:31.479Z,6.03
2023-04-09T20:48:34.970Z,5.96
2023-04-09T20:51:38.057Z,5.94
2023-04-09T20:54:43.076Z,5.91
2023-04-09T20:57:46.128Z,5.86
2023-04-09T21:00:49.414Z,5.87
2023-04-09T21:03:53.661Z,5.87
2023-04-09T21:06:58.322Z,5.79
2023-04-09T21:10:01.920Z,5.79
2023-04-09T21:13:05.129Z,5.74
2023-04-09T21:16:09.411Z,5.65
2023-04-09T21:19:12.573Z,5.63
2023-04-09T21:22:15.735Z,5.56
2023-04-09T21:25:18.947Z,5.48
2023-04-09T21:28:21.802Z,5.43
2023-04-09T21:31:25.134Z,5.36
2023-04-09T21:34:28.043Z,5.24
2023-04-09T21:37:33.139Z,5.17
2023-04-09T21:40:37.339Z,5.14
2023-04-09T21:43:40.659Z,5.07
2023-04-09T21:46:44.933Z,5.03
2023-04-09T21:49:50.212Z,4.99
2023-04-09T21:52:53.214Z,4.83
2023-04-09T21:55:57.486Z,4.70
2023-04-09T21:59:01.397Z,4.63
2023-04-09T22:02:04.971Z,4.54
2023-04-09T22:05:08.801Z,4.45
2023-04-09T22:08:13.172Z,4.37
2023-04-09T22:11:16.690Z,4.36
2023-04-09T22:14:20.678Z,4.27
2023-04-09T22:17:23.938Z,4.27
2023-04-09T22:20:27.003Z,4.26
2023-04-09T22:23:30.189Z,4.27
2023-04-09T22:26:33.602Z,4.26
2023-04-09T22:29:37.228Z,4.27
2023-04-09T22:32:40.182Z,4.26
2023-04-09T22:35:44.053Z,4.17
2023-04-09T22:38:46.923Z,4.27
2023-04-09T22:41:51.088Z,4.36
2023-04-09T22:44:54.032Z,4.47
2023-04-09T22:47:57.765Z,4.46
2023-04-09T22:51:00.650Z,4.37
2023-04-09T22:54:04.003Z,4.28
2023-04-09T22:57:06.895Z,4.27
2023-04-09T23:00:10.619Z,4.22
2023-04-09T23:03:13.624Z,4.15
2023-04-09T23:06:19.738Z,4.10
2023-04-09T23:09:22.834Z,4.11
2023-04-09T23:12:26.501Z,4.09
2023-04-09T23:15:29.373Z,4.03
2023-04-09T23:18:33.143Z,4.00
2023-04-09T23:21:37.345Z,4.00
2023-04-09T23:24:40.538Z,4.10
2023-04-09T23:27:44.119Z,4.17
2023-04-09T23:30:47.277Z,4.19
2023-04-09T23:33:50.247Z,4.21
2023-04-09T23:36:53.468Z,4.19
2023-04-09T23:39:56.666Z,4.17
2023-04-09T23:42:59.920Z,4.17
2023-04-09T23:46:02.832Z,4.14
2023-04-09T23:49:06.018Z,4.12
2023-04-09T23:52:08.965Z,4.00
2023-04-09T23:55:12.441Z,3.95
2023-04-09T23:58:15.363Z,3.71
